Time;durP1;ratioP1;P1;durP2;ratioP2;P2;SDS_P1;SDS_P2;PMS_P1;PMS_P2;Temp;Humidity;BMP_temperature;BMP_pressure;BME280_temperature;BME280_humidity;BME280_pressure;Samples;Min_cycle;Max_cycle;Signal;HPM_P1;HPM_P2
2023/01/17 00:01:41;;;;;;;9.55;2.72;;;;;;;2.97;100.00;97196.63;5071932;28;20060;-79
2023/01/17 00:09:52;;;;;;;4.03;2.10;;;;;;;3.17;100.00;97248.38;5063808;28;20056;-78
2023/01/17 00:12:27;;;;;;;5.35;2.28;;;;;;;3.57;100.00;97311.09;5072829;28;20065;-78
2023/01/17 00:14:55;;;;;;;3.35;2.10;;;;;;;3.68;100.00;97315.59;5068701;28;20059;-78
2023/01/17 00:17:23;;;;;;;2.85;2.05;;;;;;;3.34;100.00;97262.09;5073585;28;20052;-79
2023/01/17 01:35:35;;;;;;;4.63;1.83;;;;;;;3.36;100.00;97417.16;5065101;28;20515;-79
2023/01/17 01:38:02;;;;;;;3.58;1.58;;;;;;;3.45;100.00;97422.63;5071748;28;20063;-78
2023/01/17 01:40:29;;;;;;;6.00;1.90;;;;;;;2.93;100.00;97351.97;5066220;28;20568;-81
2023/01/17 01:42:58;;;;;;;3.80;1.58;;;;;;;2.67;100.00;97308.41;5071720;28;20063;-78
2023/01/17 01:45:27;;;;;;;2.47;1.55;;;;;;;3.38;100.00;97436.19;5064200;28;20037;-79
2023/01/17 01:47:59;;;;;;;5.30;1.50;;;;;;;3.37;100.00;97452.84;5064604;28;20075;-78
2023/01/17 01:50:27;;;;;;;3.60;1.92;;;;;;;2.33;100.00;97300.09;5068561;28;20052;-79
2023/01/17 01:52:57;;;;;;;3.40;1.85;;;;;;;3.15;100.00;97432.44;5063972;28;20063;-77
2023/01/17 01:55:33;;;;;;;4.93;1.77;;;;;;;2.53;100.00;97353.66;5068531;28;20064;-79
2023/01/17 01:58:09;;;;;;;4.18;1.42;;;;;;;3.09;100.00;97459.84;5065515;28;20052;-78
2023/01/17 02:00:37;;;;;;;5.32;1.75;;;;;;;3.06;100.00;97473.09;5057787;28;20049;-77
2023/01/17 02:03:12;;;;;;;5.65;1.58;;;;;;;2.94;100.00;97455.56;5065575;28;20135;-79
2023/01/17 02:05:41;;;;;;;4.30;1.67;;;;;;;3.05;100.00;97473.19;5069731;28;20135;-79
2023/01/17 02:08:14;;;;;;;6.70;1.88;;;;;;;2.77;100.00;97440.13;5070438;28;20052;-78
2023/01/17 02:10:41;;;;;;;3.58;1.83;;;;;;;2.63;100.00;97427.06;5070539;28;20083;-78
2023/01/17 02:13:08;;;;;;;6.85;1.85;;;;;;;2.80;100.00;97477.34;5070971;28;20058;-78
2023/01/17 02:15:59;;;;;;;5.63;1.80;;;;;;;2.80;100.00;97474.75;5070853;28;20436;-78
2023/01/17 02:18:38;;;;;;;5.70;2.00;;;;;;;2.73;100.00;97483.88;5072951;28;20505;-80
2023/01/17 02:21:16;;;;;;;2.95;1.80;;;;;;;2.57;100.00;97474.47;5071209;28;20509;-78
2023/01/17 02:24:20;;;;;;;2.90;1.70;;;;;;;2.58;100.00;97489.19;5069161;28;20060;-78
2023/01/17 02:27:27;;;;;;;3.15;1.58;;;;;;;2.55;100.00;97492.00;5054829;28;20055;-78
2023/01/17 02:30:33;;;;;;;3.80;1.98;;;;;;;2.41;100.00;97488.44;5062012;28;20052;-78
2023/01/17 02:33:28;;;;;;;4.00;2.03;;;;;;;2.05;100.00;97441.88;5064435;28;20566;-79
2023/01/17 02:36:19;;;;;;;4.68;1.90;;;;;;;2.18;100.00;97451.63;5069905;28;20557;-79
2023/01/17 02:39:08;;;;;;;5.07;1.98;;;;;;;2.37;100.00;97481.72;5059767;28;20080;-79
2023/01/17 02:41:39;;;;;;;5.05;1.90;;;;;;;2.26;100.00;97476.31;5068091;28;20059;-79
2023/01/17 02:44:14;;;;;;;3.90;1.70;;;;;;;2.47;100.00;97515.97;5066114;28;20060;-79
2023/01/17 02:46:45;;;;;;;4.93;1.90;;;;;;;2.33;100.00;97488.09;5070973;28;20053;-79
2023/01/17 02:49:14;;;;;;;4.75;1.98;;;;;;;2.28;100.00;97473.63;5071725;28;20139;-79
2023/01/17 02:52:00;;;;;;;4.18;1.75;;;;;;;2.08;100.00;97439.09;5070812;28;20078;-79
2023/01/17 02:54:52;;;;;;;4.03;1.70;;;;;;;2.51;100.00;97511.41;5069889;28;20062;-80
2023/01/17 02:57:31;;;;;;;3.58;1.80;;;;;;;2.53;100.00;97512.97;5059859;28;20059;-79
2023/01/17 03:00:20;;;;;;;7.93;1.67;;;;;;;2.52;100.00;97518.31;5065415;28;20045;-78
2023/01/17 03:02:56;;;;;;;3.90;1.85;;;;;;;2.41;100.00;97517.19;5066752;28;20053;-81
2023/01/17 03:05:32;;;;;;;6.60;1.88;;;;;;;2.06;100.00;97464.44;5073164;28;20056;-79
2023/01/17 03:08:02;;;;;;;3.10;1.55;;;;;;;2.22;100.00;97485.25;5073129;28;20048;-79
2023/01/17 03:10:31;;;;;;;3.53;1.83;;;;;;;2.16;100.00;97480.41;5070526;28;20402;-80
2023/01/17 03:12:59;;;;;;;4.38;1.60;;;;;;;2.17;100.00;97466.44;5071979;28;20048;-78
2023/01/17 03:15:26;;;;;;;5.10;2.03;;;;;;;2.54;100.00;97542.56;5068762;28;20048;-79
2023/01/17 03:17:59;;;;;;;3.80;2.00;;;;;;;2.58;100.00;97529.22;5067883;28;20052;-78
2023/01/17 03:20:26;;;;;;;4.80;1.75;;;;;;;2.61;100.00;97534.28;5056915;28;20644;-78
2023/01/17 03:22:52;;;;;;;4.57;1.65;;;;;;;2.61;100.00;97543.88;5067622;28;20059;-78
2023/01/17 03:25:19;;;;;;;3.20;1.30;;;;;;;2.02;100.00;97438.66;5073075;28;20048;-79
2023/01/17 03:27:45;;;;;;;3.83;1.65;;;;;;;2.54;100.00;97548.63;5073547;28;20055;-76
2023/01/17 03:30:12;;;;;;;3.17;1.73;;;;;;;2.29;100.00;97517.91;5066301;28;20072;-78
2023/01/17 03:32:39;;;;;;;3.78;1.75;;;;;;;2.11;100.00;97492.91;5071008;28;20051;-82
2023/01/17 03:35:06;;;;;;;3.28;1.48;;;;;;;2.24;100.00;97529.56;5062797;28;20049;-82
2023/01/17 03:37:32;;;;;;;5.50;1.65;;;;;;;2.60;100.00;97578.78;5072199;28;20049;-82
2023/01/17 03:39:59;;;;;;;4.78;1.67;;;;;;;2.61;100.00;97570.00;5075588;28;20056;-82
2023/01/17 03:42:25;;;;;;;3.10;1.80;;;;;;;2.00;100.00;97477.03;5081551;28;20079;-84
2023/01/17 03:44:52;;;;;;;2.58;1.52;;;;;;;2.36;100.00;97524.44;5084408;28;20048;-82
2023/01/17 03:47:18;;;;;;;4.00;1.88;;;;;;;2.45;100.00;97549.19;5085651;28;20048;-82
2023/01/17 03:49:45;;;;;;;5.05;1.70;;;;;;;2.08;100.00;97485.25;5070210;28;20048;-81
2023/01/17 03:52:11;;;;;;;4.63;1.98;;;;;;;2.05;100.00;97475.81;5075884;28;20056;-82
2023/01/17 03:54:38;;;;;;;3.85;1.80;;;;;;;2.58;100.00;97559.72;5084914;28;20053;-82
2023/01/17 03:57:04;;;;;;;4.72;1.80;;;;;;;2.57;100.00;97573.72;5083511;28;20051;-82
2023/01/17 03:59:32;;;;;;;2.45;1.63;;;;;;;2.55;100.00;97576.44;5075245;28;20053;-81
2023/01/17 04:02:00;;;;;;;3.53;1.88;;;;;;;2.17;100.00;97528.25;5078100;28;20049;-81
2023/01/17 04:04:26;;;;;;;5.72;1.92;;;;;;;2.43;100.00;97570.16;5072550;28;20094;-82
2023/01/17 04:06:53;;;;;;;3.63;2.20;;;;;;;2.00;100.00;97521.41;5074993;28;20040;-81
2023/01/17 04:09:20;;;;;;;5.50;2.10;;;;;;;1.92;100.00;97518.38;5072679;28;20147;-81
2023/01/17 04:11:49;;;;;;;4.72;2.05;;;;;;;2.39;100.00;97592.16;5073335;28;20052;-82
2023/01/17 04:14:16;;;;;;;6.38;1.90;;;;;;;2.38;100.00;97595.69;5073048;28;20731;-82
2023/01/17 04:16:43;;;;;;;6.72;1.92;;;;;;;1.57;100.00;97461.28;5074563;28;20051;-83
2023/01/17 04:19:12;;;;;;;6.50;2.28;;;;;;;2.35;100.00;97587.22;5074254;28;20079;-83
2023/01/17 04:21:38;;;;;;;7.47;2.17;;;;;;;1.91;100.00;97521.91;5074886;28;20064;-82
2023/01/17 04:24:05;;;;;;;5.85;2.40;;;;;;;2.02;100.00;97554.31;5070944;28;20059;-81
2023/01/17 04:26:32;;;;;;;5.63;2.50;;;;;;;2.30;100.00;97592.72;5074178;28;20044;-81
2023/01/17 04:28:58;;;;;;;6.72;2.33;;;;;;;2.27;100.00;97581.59;5067995;28;20049;-82
2023/01/17 04:31:25;;;;;;;4.00;2.10;;;;;;;1.74;100.00;97499.41;5072689;28;20047;-82
2023/01/17 04:33:51;;;;;;;4.45;2.10;;;;;;;2.05;100.00;97550.66;5075044;28;20062;-83
2023/01/17 04:36:18;;;;;;;6.75;2.80;;;;;;;1.95;100.00;97550.38;5078220;28;20040;-82
2023/01/17 04:38:44;;;;;;;3.63;2.13;;;;;;;1.42;100.00;97462.13;5077510;28;20056;-84
2023/01/17 04:41:11;;;;;;;4.55;2.00;;;;;;;1.95;100.00;97537.31;5080415;28;20123;-82
2023/01/17 04:43:38;;;;;;;3.53;1.98;;;;;;;2.04;100.00;97567.28;5081625;28;20059;-83
2023/01/17 04:46:08;;;;;;;5.93;2.28;;;;;;;1.69;100.00;97509.28;5088630;28;20028;-85
2023/01/17 04:48:35;;;;;;;5.13;2.60;;;;;;;2.25;100.00;97620.00;5092334;28;20045;-83
2023/01/17 04:51:04;;;;;;;4.68;1.90;;;;;;;2.18;100.00;97624.75;5086721;28;20094;-83
2023/01/17 04:53:31;;;;;;;4.82;2.50;;;;;;;2.20;100.00;97627.28;5083303;28;20040;-81
2023/01/17 04:55:58;;;;;;;5.05;2.47;;;;;;;2.10;100.00;97617.34;5069396;28;20474;-83
2023/01/17 04:58:24;;;;;;;5.05;2.80;;;;;;;2.18;100.00;97624.75;5071430;28;20049;-80
2023/01/17 05:00:51;;;;;;;6.20;3.05;;;;;;;1.85;100.00;97582.31;5072235;28;20068;-82
2023/01/17 05:03:20;;;;;;;5.25;2.95;;;;;;;2.18;100.00;97635.19;5083205;28;20086;-84
2023/01/17 05:05:47;;;;;;;4.72;3.00;;;;;;;1.18;100.00;97479.16;5073736;28;20520;-85
2023/01/17 05:08:14;;;;;;;6.07;2.90;;;;;;;2.01;100.00;97623.09;5075139;28;20048;-83
2023/01/17 05:10:40;;;;;;;5.20;2.85;;;;;;;1.62;100.00;97573.16;5071589;28;20056;-83
2023/01/17 05:13:08;;;;;;;6.32;3.38;;;;;;;1.00;100.00;97494.03;5080461;28;20052;-81
2023/01/17 05:15:35;;;;;;;7.40;3.38;;;;;;;-0.04;100.00;97327.88;5073917;28;20044;-82
2023/01/17 05:18:07;;;;;;;6.68;3.30;;;;;;;1.45;100.00;97547.16;5076028;28;20044;-83
2023/01/17 05:20:35;;;;;;;8.10;3.67;;;;;;;1.73;100.00;97576.00;5073469;28;20052;-81
2023/01/17 05:23:02;;;;;;;5.82;3.17;;;;;;;1.88;100.00;97610.84;5073413;28;20048;-82
2023/01/17 05:25:30;;;;;;;7.25;3.63;;;;;;;2.01;100.00;97653.59;5072996;28;20060;-81
2023/01/17 05:28:01;;;;;;;6.72;3.28;;;;;;;2.08;100.00;97653.13;5071904;28;20704;-82
2023/01/17 05:30:29;;;;;;;6.65;3.05;;;;;;;2.21;100.00;97665.47;5072864;28;20052;-81
2023/01/17 05:32:57;;;;;;;5.03;3.10;;;;;;;1.45;100.00;97573.25;5064536;28;20048;-82
2023/01/17 05:35:27;;;;;;;4.50;3.08;;;;;;;2.00;100.00;97651.91;5069676;28;20054;-82
2023/01/17 05:37:54;;;;;;;7.87;3.60;;;;;;;2.16;100.00;97680.59;5071455;28;20048;-81
2023/01/17 05:40:24;;;;;;;6.55;3.63;;;;;;;1.97;100.00;97647.69;5071921;28;20572;-82
2023/01/17 05:42:53;;;;;;;7.15;3.50;;;;;;;2.14;100.00;97685.91;5072258;28;20048;-81
2023/01/17 05:45:20;;;;;;;6.82;3.80;;;;;;;0.69;100.00;97445.38;5072774;28;20055;-80
2023/01/17 05:47:52;;;;;;;8.98;3.88;;;;;;;2.10;100.00;97676.53;5073304;28;20056;-82
2023/01/17 05:50:33;;;;;;;8.40;4.35;;;;;;;1.35;100.00;97565.09;5072706;28;20653;-81
2023/01/17 05:53:03;;;;;;;7.65;4.13;;;;;;;1.96;100.00;97655.59;5065066;28;20063;-80
2023/01/17 05:55:34;;;;;;;6.43;3.80;;;;;;;1.94;100.00;97658.28;5072181;28;20045;-82
2023/01/17 05:58:01;;;;;;;8.98;4.10;;;;;;;1.53;100.00;97594.53;5068340;28;20040;-81
2023/01/17 06:00:28;;;;;;;6.50;3.97;;;;;;;2.11;100.00;97694.72;5072267;28;20657;-82
2023/01/17 06:02:56;;;;;;;9.13;4.20;;;;;;;1.94;100.00;97658.28;5071966;28;20394;-80
2023/01/17 06:05:24;;;;;;;6.95;4.00;;;;;;;2.11;100.00;97681.69;5071939;28;20048;-81
2023/01/17 06:07:51;;;;;;;7.70;4.10;;;;;;;1.63;100.00;97612.19;5067099;28;20056;-81
2023/01/17 06:10:19;;;;;;;6.82;3.90;;;;;;;2.03;100.00;97668.22;5058507;28;20072;-81
2023/01/17 06:12:46;;;;;;;6.43;3.83;;;;;;;2.16;100.00;97680.59;5068095;28;20071;-81
2023/01/17 06:15:15;;;;;;;10.40;5.13;;;;;;;1.88;100.00;97632.56;5070157;28;20133;-81
2023/01/17 06:17:41;;;;;;;8.65;4.28;;;;;;;2.24;100.00;97689.66;5064952;28;20577;-81
2023/01/17 06:20:10;;;;;;;6.80;3.75;;;;;;;2.09;100.00;97654.81;5071190;28;20048;-82
2023/01/17 06:22:37;;;;;;;7.07;3.80;;;;;;;2.15;100.00;97671.91;5066479;28;20057;-81
2023/01/17 06:25:04;;;;;;;6.78;3.80;;;;;;;2.26;100.00;97690.41;5068784;28;20049;-81
2023/01/17 06:27:31;;;;;;;8.07;4.10;;;;;;;1.57;100.00;97580.41;5071869;28;20050;-82
2023/01/17 06:29:57;;;;;;;7.93;4.05;;;;;;;2.16;100.00;97678.81;5072270;28;20049;-81
2023/01/17 06:32:24;;;;;;;7.57;4.05;;;;;;;1.84;100.00;97651.06;5063129;28;20056;-81
2023/01/17 06:34:50;;;;;;;7.18;3.97;;;;;;;1.86;100.00;97675.31;5079415;28;20048;-82
2023/01/17 06:37:17;;;;;;;10.27;4.57;;;;;;;1.60;100.00;97637.59;5069867;28;20049;-81
2023/01/17 06:39:43;;;;;;;8.65;3.95;;;;;;;1.67;100.00;97642.41;5070332;28;20040;-81
2023/01/17 06:42:10;;;;;;;8.90;4.10;;;;;;;1.70;100.00;97647.47;5068134;28;20063;-81
2023/01/17 06:44:37;;;;;;;9.45;4.55;;;;;;;1.51;100.00;97599.00;5070562;28;20121;-81
2023/01/17 06:47:03;;;;;;;8.18;4.47;;;;;;;2.16;100.00;97704.94;5070808;28;20045;-81
2023/01/17 06:49:30;;;;;;;15.13;6.93;;;;;;;1.40;100.00;97569.16;5071078;28;20056;-81
2023/01/17 06:51:56;;;;;;;9.13;4.70;;;;;;;1.30;100.00;97569.72;5064611;28;20057;-80
2023/01/17 06:54:23;;;;;;;10.80;4.88;;;;;;;1.89;100.00;97654.28;5063658;28;20449;-81
2023/01/17 06:56:50;;;;;;;9.40;5.10;;;;;;;2.03;100.00;97709.16;5068568;28;20049;-82
2023/01/17 06:59:16;;;;;;;6.60;4.28;;;;;;;1.22;100.00;97566.69;5070912;28;20057;-81
2023/01/17 07:01:43;;;;;;;7.85;4.80;;;;;;;1.47;100.00;97610.50;5067827;28;20045;-81
2023/01/17 07:04:09;;;;;;;9.00;4.82;;;;;;;1.12;100.00;97552.47;5071013;28;20056;-81
2023/01/17 07:06:36;;;;;;;10.13;4.78;;;;;;;2.06;100.00;97707.19;5070154;28;20041;-81
2023/01/17 07:09:03;;;;;;;13.32;4.45;;;;;;;1.69;100.00;97658.81;5070314;28;20060;-81
2023/01/17 07:11:30;;;;;;;8.00;4.32;;;;;;;1.59;100.00;97652.41;5070012;28;20076;-80
2023/01/17 07:13:57;;;;;;;9.13;4.78;;;;;;;1.97;100.00;97720.75;5063157;28;20061;-80
2023/01/17 07:16:23;;;;;;;7.93;4.75;;;;;;;0.73;100.00;97512.00;5063222;28;20119;-80
2023/01/17 07:18:50;;;;;;;11.02;4.70;;;;;;;1.86;100.00;97701.41;5069056;28;20048;-81
2023/01/17 07:21:17;;;;;;;13.50;5.43;;;;;;;1.48;100.00;97652.16;5061943;28;20052;-80
2023/01/17 07:23:44;;;;;;;8.75;4.82;;;;;;;1.83;100.00;97697.19;5069885;28;20508;-80
2023/01/17 07:26:10;;;;;;;8.60;5.32;;;;;;;1.69;100.00;97678.84;5069549;28;20684;-81
2023/01/17 07:28:38;;;;;;;8.23;5.05;;;;;;;1.68;100.00;97682.38;5069836;28;20045;-80
2023/01/17 07:31:06;;;;;;;10.68;5.13;;;;;;;1.63;100.00;97680.00;5057787;28;20051;-81
2023/01/17 07:33:34;;;;;;;8.75;4.65;;;;;;;1.65;100.00;97666.88;5064008;28;20080;-81
2023/01/17 07:36:06;;;;;;;10.65;5.07;;;;;;;1.78;100.00;97701.81;5068093;28;20044;-80
2023/01/17 07:38:33;;;;;;;9.75;5.20;;;;;;;1.00;100.00;97573.06;5071887;28;20056;-81
2023/01/17 07:41:00;;;;;;;10.18;4.70;;;;;;;1.87;100.00;97692.66;5074110;28;20079;-80
2023/01/17 07:43:27;;;;;;;11.25;5.75;;;;;;;0.88;100.00;97521.59;5071395;28;20084;-80
2023/01/17 07:45:54;;;;;;;9.63;5.65;;;;;;;1.89;100.00;97682.97;5072876;28;20048;-82
2023/01/17 07:48:23;;;;;;;8.13;5.32;;;;;;;1.73;100.00;97664.72;5074344;28;20047;-80
2023/01/17 07:50:57;;;;;;;11.73;5.22;;;;;;;1.87;100.00;97688.28;5072891;28;20083;-82
2023/01/17 07:53:26;;;;;;;7.78;4.80;;;;;;;1.29;100.00;97581.06;5067932;28;20048;-79
2023/01/17 07:55:53;;;;;;;8.13;5.10;;;;;;;0.95;100.00;97520.34;5073012;28;20059;-81
2023/01/17 07:58:20;;;;;;;9.48;4.80;;;;;;;1.58;100.00;97619.41;5069929;28;20037;-80
2023/01/17 08:00:47;;;;;;;9.57;4.97;;;;;;;1.83;100.00;97649.38;5073578;28;20139;-82
2023/01/17 08:03:16;;;;;;;9.05;4.68;;;;;;;1.93;100.00;97650.53;5071225;28;20052;-81
2023/01/17 08:05:52;;;;;;;7.88;4.50;;;;;;;1.81;100.00;97648.63;5067688;28;20484;-79
2023/01/17 08:08:18;;;;;;;11.02;5.18;;;;;;;1.99;100.00;97681.53;5061897;28;20051;-80
2023/01/17 08:10:45;;;;;;;10.85;5.07;;;;;;;1.47;100.00;97589.66;5070812;28;20135;-81
2023/01/17 08:13:12;;;;;;;8.82;5.13;;;;;;;2.02;100.00;97669.16;5064034;28;20480;-81
2023/01/17 08:15:39;;;;;;;6.25;4.50;;;;;;;2.21;100.00;97683.75;5065918;28;20102;-80
2023/01/17 08:18:05;;;;;;;9.02;4.82;;;;;;;2.13;100.00;97663.31;5066339;28;20041;-81
2023/01/17 08:20:32;;;;;;;10.35;5.30;;;;;;;2.25;100.00;97669.63;5070999;28;20053;-82
2023/01/17 08:22:58;;;;;;;9.02;5.22;;;;;;;2.15;100.00;97651.03;5073577;28;20048;-81
2023/01/17 08:25:26;;;;;;;9.48;5.63;;;;;;;2.42;100.00;97675.56;5074315;28;20151;-81
2023/01/17 08:27:56;;;;;;;9.25;5.63;;;;;;;2.22;100.00;97641.91;5075492;28;20139;-82
2023/01/17 08:30:23;;;;;;;10.40;5.72;;;;;;;2.35;100.00;97649.91;5074671;28;20056;-82
2023/01/17 08:32:50;;;;;;;11.07;5.85;;;;;;;2.29;100.00;97631.97;5076188;28;20416;-81
2023/01/17 08:35:18;;;;;;;12.45;6.40;;;;;;;1.86;100.00;97563.94;5070940;28;20051;-82
2023/01/17 08:37:46;;;;;;;13.85;6.00;;;;;;;1.98;100.00;97578.06;5072917;28;20045;-80
2023/01/17 08:40:17;;;;;;;11.23;6.20;;;;;;;1.84;100.00;97565.81;5067367;28;20052;-80
2023/01/17 08:42:43;;;;;;;12.18;6.47;;;;;;;2.12;100.00;97593.78;5063915;28;20044;-80
2023/01/17 08:45:11;;;;;;;11.40;6.10;;;;;;;1.99;100.00;97570.16;5073259;28;20056;-80
2023/01/17 08:47:38;;;;;;;15.68;7.57;;;;;;;2.39;100.00;97636.56;5073812;28;20051;-79
2023/01/17 08:50:05;;;;;;;15.77;6.78;;;;;;;1.94;100.00;97561.72;5073618;28;20056;-81
2023/01/17 08:52:32;;;;;;;15.18;8.55;;;;;;;2.46;100.00;97631.84;5073945;28;20055;-81
2023/01/17 08:54:59;;;;;;;13.38;7.38;;;;;;;2.45;100.00;97632.75;5071822;28;20131;-80
2023/01/17 08:57:26;;;;;;;17.08;8.02;;;;;;;2.40;100.00;97617.34;5058804;28;20121;-81
2023/01/17 08:59:52;;;;;;;14.55;7.40;;;;;;;2.08;100.00;97566.16;5080695;28;20152;-80
2023/01/17 09:02:19;;;;;;;11.90;7.40;;;;;;;2.38;100.00;97589.63;5079999;28;20048;-80
2023/01/17 09:04:47;;;;;;;17.10;9.07;;;;;;;2.76;100.00;97637.03;5069988;28;20214;-81
2023/01/17 09:07:16;;;;;;;16.05;8.40;;;;;;;2.72;100.00;97622.44;5063971;28;20037;-81
2023/01/17 09:09:43;;;;;;;10.93;7.28;;;;;;;2.69;100.00;97612.16;5072418;28;20056;-81
2023/01/17 09:12:10;;;;;;;13.10;7.70;;;;;;;2.73;100.00;97611.06;5064671;28;20049;-80
2023/01/17 09:14:37;;;;;;;12.65;8.35;;;;;;;2.72;100.00;97607.63;5063055;28;20056;-80
2023/01/17 09:17:06;;;;;;;13.55;7.15;;;;;;;2.98;100.00;97640.03;5072121;28;20106;-82
2023/01/17 09:19:34;;;;;;;11.70;6.78;;;;;;;2.68;100.00;97606.09;5072983;28;20489;-81
2023/01/17 09:22:03;;;;;;;12.70;7.03;;;;;;;2.98;100.00;97654.88;5075894;28;20080;-81
2023/01/17 09:24:30;;;;;;;11.63;6.13;;;;;;;2.91;100.00;97640.50;5084008;28;20029;-82
2023/01/17 09:26:56;;;;;;;13.00;7.38;;;;;;;2.89;100.00;97624.06;5080009;28;20048;-81
2023/01/17 09:29:23;;;;;;;12.38;6.78;;;;;;;3.11;100.00;97650.59;5090352;28;20186;-81
2023/01/17 09:31:50;;;;;;;11.32;6.32;;;;;;;2.55;100.00;97520.72;5068374;28;20060;-81
2023/01/17 09:34:17;;;;;;;11.93;6.68;;;;;;;2.67;100.00;97520.00;5061687;28;20049;-80
2023/01/17 09:36:44;;;;;;;11.10;6.68;;;;;;;3.46;100.00;97633.56;5078909;28;20040;-80
2023/01/17 09:39:13;;;;;;;11.88;6.07;;;;;;;3.22;100.00;97587.19;5077439;28;20059;-81
2023/01/17 09:41:58;;;;;;;11.60;6.35;;;;;;;3.31;100.00;97590.06;5073113;28;20048;-79
2023/01/17 09:44:51;;;;;;;14.23;6.68;;;;;;;3.72;100.00;97631.94;5069812;28;20052;-81
2023/01/17 09:47:42;;;;;;;11.13;6.68;;;;;;;3.72;100.00;97637.19;5062979;28;20131;-80
2023/01/17 09:50:19;;;;;;;9.32;5.85;;;;;;;4.05;100.00;97657.75;5073732;28;20174;-82
2023/01/17 09:52:46;;;;;;;8.10;5.50;;;;;;;3.87;100.00;97617.03;5074177;28;20062;-81
2023/01/17 09:55:14;;;;;;;11.68;5.93;;;;;;;4.17;100.00;97658.75;5070100;28;20076;-81
2023/01/17 09:58:02;;;;;;;8.88;5.80;;;;;;;4.31;100.00;97663.09;5068217;28;20080;-80
2023/01/17 10:00:37;;;;;;;8.77;5.53;;;;;;;3.79;100.00;97557.31;5065242;28;20147;-80
2023/01/17 10:03:39;;;;;;;11.13;6.15;;;;;;;4.48;100.00;97660.19;5072871;28;20044;-79
2023/01/17 10:06:14;;;;;;;9.55;5.22;;;;;;;4.55;100.00;97661.50;5068771;28;20057;-80
2023/01/17 10:08:40;;;;;;;6.53;3.60;;;;;;;4.47;100.00;97664.59;5062595;28;20071;-80
2023/01/17 10:11:29;;;;;;;8.05;3.75;;;;;;;3.99;94.59;97599.69;5066172;28;20102;-80
2023/01/17 10:14:04;;;;;;;5.30;3.25;;;;;;;4.24;89.82;97662.66;5072672;28;20052;-80
2023/01/17 10:16:53;;;;;;;6.72;3.70;;;;;;;4.19;91.79;97664.72;5074286;28;20056;-81
2023/01/17 10:19:22;;;;;;;7.10;3.80;;;;;;;4.21;90.99;97662.84;5065354;28;20112;-80
2023/01/17 10:22:30;;;;;;;10.20;4.90;;;;;;;4.23;91.41;97642.66;5071650;28;20053;-80
2023/01/17 10:25:31;;;;;;;5.93;3.97;;;;;;;4.15;87.44;97639.66;5072161;28;20078;-82
2023/01/17 10:28:17;;;;;;;4.85;3.20;;;;;;;4.28;88.35;97651.00;5069943;28;20045;-81
2023/01/17 10:30:53;;;;;;;6.40;3.83;;;;;;;3.92;90.86;97578.34;5070405;28;20044;-81
2023/01/17 10:33:28;;;;;;;5.60;3.20;;;;;;;4.35;88.67;97628.72;5073303;28;20052;-79
2023/01/17 10:36:14;;;;;;;4.32;3.08;;;;;;;4.68;82.87;97656.28;5070772;28;20052;-80
2023/01/17 10:38:46;;;;;;;7.55;3.90;;;;;;;4.79;82.11;97645.91;5070694;28;20123;-79
2023/01/17 10:41:36;;;;;;;6.00;3.53;;;;;;;4.71;82.94;97617.59;5071661;28;20143;-80
2023/01/17 10:44:38;;;;;;;6.28;3.85;;;;;;;4.88;83.19;97642.63;5072704;28;20150;-78
2023/01/17 10:47:10;;;;;;;6.32;3.65;;;;;;;4.77;82.61;97648.63;5010423;28;20050;-80
2023/01/17 10:49:42;;;;;;;7.32;3.70;;;;;;;4.85;85.19;97656.81;5056111;28;20473;-80
2023/01/17 10:52:12;;;;;;;5.35;3.72;;;;;;;4.75;83.17;97662.75;5071698;28;20048;-80
2023/01/17 10:55:02;;;;;;;5.88;3.15;;;;;;;4.02;80.70;97596.88;5071373;28;20055;-80
2023/01/17 10:57:40;;;;;;;8.30;4.60;;;;;;;4.23;82.17;97660.97;5070869;28;20263;-79
2023/01/17 11:00:27;;;;;;;7.13;3.28;;;;;;;4.08;83.37;97672.44;5071664;28;20512;-79
2023/01/17 11:02:54;;;;;;;7.05;3.45;;;;;;;3.90;84.97;97657.91;5071321;28;20143;-79
2023/01/17 11:05:27;;;;;;;6.90;2.83;;;;;;;3.70;84.78;97652.13;5071173;28;20053;-79
2023/01/17 11:08:02;;;;;;;5.38;3.20;;;;;;;3.77;87.47;97668.31;5071187;28;20044;-79
2023/01/17 11:10:35;;;;;;;6.55;3.60;;;;;;;3.64;88.59;97657.75;5070342;28;20570;-80
2023/01/17 11:13:05;;;;;;;7.30;3.90;;;;;;;3.49;91.11;97616.84;5069742;28;20052;-80
2023/01/17 11:15:36;;;;;;;6.17;3.60;;;;;;;3.80;90.29;97663.69;5071482;28;20576;-79
2023/01/17 11:18:06;;;;;;;6.18;3.38;;;;;;;3.72;89.36;97637.19;5063428;28;20044;-79
2023/01/17 11:20:35;;;;;;;5.88;3.83;;;;;;;3.90;91.14;97655.28;5071743;28;20051;-81
2023/01/17 11:23:28;;;;;;;4.50;3.60;;;;;;;3.94;92.12;97659.34;5071251;28;20065;-79
2023/01/17 11:25:57;;;;;;;6.20;3.42;;;;;;;3.96;90.40;97658.34;5074748;28;20044;-79
2023/01/17 11:28:33;;;;;;;5.28;3.35;;;;;;;3.73;88.82;97601.38;5070325;28;20049;-80
2023/01/17 11:31:27;;;;;;;3.63;3.05;;;;;;;4.00;86.93;97611.84;5073224;28;20086;-81
2023/01/17 11:34:15;;;;;;;6.95;3.80;;;;;;;4.36;84.69;97645.28;5072528;28;20064;-80
2023/01/17 11:36:42;;;;;;;5.60;3.17;;;;;;;4.44;82.69;97643.84;5073215;28;20052;-81
2023/01/17 11:39:26;;;;;;;4.60;2.90;;;;;;;4.48;77.02;97640.06;5070459;28;20055;-80
2023/01/17 11:41:53;;;;;;;2.80;1.63;;;;;;;4.30;72.33;97609.00;5074134;28;20493;-79
2023/01/17 11:44:31;;;;;;;2.85;1.80;;;;;;;4.45;68.56;97603.59;5073440;28;20044;-79
2023/01/17 11:47:09;;;;;;;3.92;2.20;;;;;;;4.70;64.86;97625.56;5065914;28;20513;-79
2023/01/17 11:49:37;;;;;;;7.05;1.90;;;;;;;4.77;65.13;97629.44;5072635;28;20048;-79
2023/01/17 11:52:21;;;;;;;4.95;2.40;;;;;;;4.86;66.92;97618.34;5074158;28;20143;-80
2023/01/17 11:54:49;;;;;;;6.13;3.10;;;;;;;4.54;67.48;97534.03;5070312;28;20116;-80
2023/01/17 11:57:27;;;;;;;2.90;2.00;;;;;;;5.10;66.21;97608.78;5073890;28;20136;-80
2023/01/17 12:00:22;;;;;;;7.07;2.80;;;;;;;5.12;65.20;97588.53;5071196;28;20048;-82
2023/01/17 12:03:16;;;;;;;4.38;2.50;;;;;;;5.29;67.55;97605.72;5066228;28;20805;-82
2023/01/17 12:06:02;;;;;;;3.17;2.10;;;;;;;5.11;66.88;97571.09;5069402;28;20044;-81
2023/01/17 12:08:54;;;;;;;6.18;2.70;;;;;;;5.05;66.45;97576.75;5067356;28;20045;-81
2023/01/17 12:14:59;;;;;;;8.35;2.88;;;;;;;4.69;66.00;97563.59;5075131;28;20042;-82
2023/01/17 12:17:44;;;;;;;;;;;;;;;5.08;66.78;97587.06;5079934;28;20041;-82
2023/01/17 12:20:45;;;;;;;4.75;2.10;;;;;;;5.19;63.70;97560.09;5068252;28;20618;-83
2023/01/17 12:23:26;;;;;;;7.50;2.75;;;;;;;5.47;60.93;97575.56;5069062;28;20060;-82
2023/01/17 12:26:28;;;;;;;4.18;2.00;;;;;;;5.38;60.67;97531.59;5080662;28;20068;-84
2023/01/17 12:29:32;;;;;;;6.35;2.42;;;;;;;5.57;60.57;97565.22;5077182;28;20132;-83
2023/01/17 12:32:27;;;;;;;2.58;2.17;;;;;;;5.50;59.22;97562.22;5076001;28;20124;-81
2023/01/17 12:34:59;;;;;;;3.17;2.25;;;;;;;5.45;60.63;97560.88;5078557;28;20393;-83
2023/01/17 12:37:38;;;;;;;5.90;3.03;;;;;;;5.52;60.19;97539.31;5074013;28;20064;-83
2023/01/17 12:40:34;;;;;;;4.53;2.80;;;;;;;5.83;59.46;97553.66;5074568;28;20047;-83
2023/01/17 12:43:12;;;;;;;3.95;2.45;;;;;;;5.98;59.18;97554.41;5077651;28;20044;-85
2023/01/17 12:45:44;;;;;;;5.40;2.60;;;;;;;6.11;58.48;97567.47;5080596;28;20044;-81
2023/01/17 12:48:14;;;;;;;5.60;3.03;;;;;;;5.97;58.27;97535.19;5080317;28;20052;-83
2023/01/17 12:51:06;;;;;;;6.53;2.65;;;;;;;5.69;57.95;97482.94;5079599;28;20100;-83
2023/01/17 12:53:45;;;;;;;5.65;2.05;;;;;;;5.85;56.66;97546.53;5075604;28;20047;-82
2023/01/17 12:56:12;;;;;;;4.90;2.45;;;;;;;5.71;57.62;97551.09;5079747;28;20054;-83
2023/01/17 12:58:53;;;;;;;3.80;2.42;;;;;;;5.54;58.10;97512.94;5070788;28;20051;-83
2023/01/17 13:01:38;;;;;;;5.53;2.40;;;;;;;5.32;57.50;97479.56;5076277;28;20055;-82
2023/01/17 13:04:23;;;;;;;3.80;2.30;;;;;;;4.93;57.66;97506.81;5076910;28;20044;-83
2023/01/17 13:06:58;;;;;;;5.32;2.50;;;;;;;4.88;58.50;97527.28;5077131;28;20477;-82
2023/01/17 13:09:35;;;;;;;5.25;2.15;;;;;;;4.12;59.32;97402.38;5071959;28;20402;-82
2023/01/17 13:12:06;;;;;;;5.65;2.53;;;;;;;4.34;59.45;97435.81;5068767;28;20051;-81
2023/01/17 13:14:33;;;;;;;5.72;2.10;;;;;;;4.82;58.54;97485.78;5075275;28;20131;-83
2023/01/17 13:17:05;;;;;;;4.47;2.00;;;;;;;4.56;59.20;97443.84;5075204;28;20048;-83
2023/01/17 13:19:44;;;;;;;4.00;2.20;;;;;;;4.84;58.15;97466.38;5074452;28;20040;-83
2023/01/17 13:22:16;;;;;;;3.92;2.10;;;;;;;4.76;58.16;97454.72;5066759;28;20057;-82
2023/01/17 13:25:15;;;;;;;3.90;1.95;;;;;;;5.20;58.73;97522.38;5073961;28;20102;-81